Time;durP1;ratioP1;P1;durP2;ratioP2;P2;SDS_P1;SDS_P2;PMS_P1;PMS_P2;Temp;Humidity;BMP_temperature;BMP_pressure;BME280_temperature;BME280_humidity;BME280_pressure;Samples;Min_cycle;Max_cycle;Signal;HPM_P1;HPM_P2
2023/05/08 00:01:16;;;;;;;12.25;11.02;;;;;;;;;;5084385;28;20052;-59
2023/05/08 00:03:42;;;;;;;12.15;10.88;;;;;;;;;;5085112;28;20056;-60
2023/05/08 00:06:09;;;;;;;13.82;11.73;;;;;;;;;;5084698;28;20049;-60
2023/05/08 00:08:35;;;;;;;13.10;11.80;;;;;;;;;;5082879;28;20068;-58
2023/05/08 00:11:02;;;;;;;12.18;10.88;;;;;;;;;;5082258;28;20056;-60
2023/05/08 00:13:28;;;;;;;10.48;9.48;;;;;;;;;;5083815;28;20506;-53
2023/05/08 00:15:55;;;;;;;11.40;10.30;;;;;;;;;;5083668;28;20149;-55
2023/05/08 00:18:21;;;;;;;11.50;10.32;;;;;;;;;;5083524;28;20106;-57
2023/05/08 00:20:47;;;;;;;11.52;10.38;;;;;;;;;;5082075;28;20566;-59
2023/05/08 00:23:14;;;;;;;12.20;11.00;;;;;;;;;;5078332;28;20515;-59
2023/05/08 00:25:40;;;;;;;11.52;10.32;;;;;;;;;;5082031;28;20049;-60
2023/05/08 00:28:07;;;;;;;12.32;10.18;;;;;;;;;;5083578;28;20475;-60
2023/05/08 00:30:33;;;;;;;12.20;11.00;;;;;;;;;;5082946;28;20503;-58
2023/05/08 00:32:59;;;;;;;12.63;11.32;;;;;;;;;;5083040;28;20079;-57
2023/05/08 00:35:26;;;;;;;12.10;10.90;;;;;;;;;;5084332;28;20057;-60
2023/05/08 00:37:52;;;;;;;15.73;11.45;;;;;;;;;;5084060;28;20049;-60
2023/05/08 00:40:18;;;;;;;11.63;10.52;;;;;;;;;;5083670;28;20052;-57
2023/05/08 00:42:45;;;;;;;11.35;10.15;;;;;;;;;;5082727;28;20056;-59
2023/05/08 00:45:11;;;;;;;12.85;11.60;;;;;;;;;;5083752;28;20049;-55
2023/05/08 00:47:38;;;;;;;19.40;11.18;;;;;;;;;;5067113;28;20643;-59
2023/05/08 00:50:04;;;;;;;21.15;12.75;;;;;;;;;;5081351;28;20098;-61
2023/05/08 00:52:31;;;;;;;13.70;12.27;;;;;;;;;;5082949;28;20495;-59
2023/05/08 00:54:59;;;;;;;13.20;11.80;;;;;;;;;;5080239;28;20103;-59
2023/05/08 00:57:26;;;;;;;13.43;12.02;;;;;;;;;;5083636;28;20044;-59
2023/05/08 00:59:54;;;;;;;13.88;11.68;;;;;;;;;;5083884;28;20059;-59
2023/05/08 01:02:20;;;;;;;12.93;11.63;;;;;;;;;;5082629;28;20143;-59
2023/05/08 01:04:47;;;;;;;12.77;11.57;;;;;;;;;;5082046;28;20468;-59
2023/05/08 01:07:13;;;;;;;19.00;12.35;;;;;;;;;;5083605;28;20148;-60
2023/05/08 01:09:40;;;;;;;16.17;12.35;;;;;;;;;;5083101;28;20492;-60
2023/05/08 01:12:11;;;;;;;16.58;12.02;;;;;;;;;;5083329;28;20047;-59
2023/05/08 01:14:38;;;;;;;13.73;12.27;;;;;;;;;;5082298;28;20056;-59
2023/05/08 01:17:14;;;;;;;12.77;11.35;;;;;;;;;;5083196;28;20052;-59
2023/05/08 01:19:56;;;;;;;12.07;10.88;;;;;;;;;;5082793;28;20060;-58
2023/05/08 01:22:36;;;;;;;11.52;10.43;;;;;;;;;;5082181;28;20517;-59
2023/05/08 01:25:03;;;;;;;12.77;10.90;;;;;;;;;;5082712;28;20509;-59
2023/05/08 01:27:32;;;;;;;12.60;11.20;;;;;;;;;;5072666;28;20063;-57
2023/05/08 01:30:07;;;;;;;11.45;10.25;;;;;;;;;;5083180;28;20048;-58
2023/05/08 01:32:45;;;;;;;12.20;10.90;;;;;;;;;;5083079;28;20053;-60
2023/05/08 01:35:20;;;;;;;10.80;9.73;;;;;;;;;;5084179;28;20475;-61
2023/05/08 01:37:46;;;;;;;11.43;10.33;;;;;;;;;;5083324;28;20048;-58
2023/05/08 01:40:15;;;;;;;12.43;9.25;;;;;;;;;;5081549;28;20060;-59
2023/05/08 01:42:42;;;;;;;9.73;8.82;;;;;;;;;;5081740;28;20063;-60
2023/05/08 01:45:30;;;;;;;10.32;9.23;;;;;;;;;;5082481;28;20098;-58
2023/05/08 01:48:03;;;;;;;10.27;9.25;;;;;;;;;;5064010;28;20057;-57
2023/05/08 01:50:31;;;;;;;12.82;9.45;;;;;;;;;;5075996;28;20565;-56
2023/05/08 01:53:02;;;;;;;10.02;9.02;;;;;;;;;;5081617;28;20051;-61
2023/05/08 01:55:33;;;;;;;10.63;9.43;;;;;;;;;;5081770;28;20049;-59
2023/05/08 01:58:00;;;;;;;9.55;8.63;;;;;;;;;;5080707;28;20499;-59
2023/05/08 02:00:27;;;;;;;10.63;8.93;;;;;;;;;;5080537;28;20053;-59
2023/05/08 02:02:54;;;;;;;11.00;9.85;;;;;;;;;;5082762;28;20060;-59
2023/05/08 02:05:22;;;;;;;11.23;8.73;;;;;;;;;;5082236;28;20053;-59
2023/05/08 02:07:49;;;;;;;10.20;8.98;;;;;;;;;;5081671;28;20566;-57
2023/05/08 02:10:17;;;;;;;9.80;8.90;;;;;;;;;;5082858;28;20519;-59
2023/05/08 02:12:44;;;;;;;11.02;9.93;;;;;;;;;;5081933;28;20387;-59
2023/05/08 02:15:12;;;;;;;10.57;9.48;;;;;;;;;;5083583;28;20570;-59
2023/05/08 02:17:39;;;;;;;14.43;10.68;;;;;;;;;;5081000;28;20179;-58
2023/05/08 02:20:07;;;;;;;11.65;10.45;;;;;;;;;;5084366;28;20140;-60
2023/05/08 02:22:34;;;;;;;12.80;10.25;;;;;;;;;;5078981;28;20589;-60
2023/05/08 02:25:00;;;;;;;11.55;10.45;;;;;;;;;;5072678;28;20056;-59
2023/05/08 02:27:29;;;;;;;10.65;9.55;;;;;;;;;;5081908;28;20504;-59
2023/05/08 02:29:56;;;;;;;11.60;10.40;;;;;;;;;;5081865;28;20216;-58
2023/05/08 02:32:24;;;;;;;11.80;10.32;;;;;;;;;;5082570;28;20512;-58
2023/05/08 02:34:51;;;;;;;11.77;9.55;;;;;;;;;;5082106;28;20052;-59
2023/05/08 02:37:30;;;;;;;55.58;11.30;;;;;;;;;;5080870;28;20052;-59
2023/05/08 02:39:57;;;;;;;20.30;10.27;;;;;;;;;;5083058;28;20044;-59
2023/05/08 02:42:24;;;;;;;30.33;12.00;;;;;;;;;;5082052;28;20139;-60
2023/05/08 02:44:50;;;;;;;25.58;12.45;;;;;;;;;;5081611;28;20060;-59
2023/05/08 02:47:22;;;;;;;30.55;12.43;;;;;;;;;;5081995;28;20136;-60
2023/05/08 02:49:53;;;;;;;44.60;13.65;;;;;;;;;;5081752;28;20060;-59
2023/05/08 02:52:29;;;;;;;114.28;15.88;;;;;;;;;;5079508;28;20422;-60
2023/05/08 02:55:05;;;;;;;21.95;13.60;;;;;;;;;;5081441;28;20056;-58
2023/05/08 02:57:31;;;;;;;116.95;14.82;;;;;;;;;;5081482;28;20135;-59
2023/05/08 03:00:07;;;;;;;105.88;17.10;;;;;;;;;;5081645;28;20053;-60
2023/05/08 03:02:36;;;;;;;158.60;17.25;;;;;;;;;;5081302;28;20058;-58
2023/05/08 03:05:06;;;;;;;128.40;15.60;;;;;;;;;;5078853;28;20092;-60
2023/05/08 03:07:35;;;;;;;42.42;15.45;;;;;;;;;;5081969;28;20136;-59
2023/05/08 03:10:04;;;;;;;105.20;14.90;;;;;;;;;;5083037;28;20532;-59
2023/05/08 03:12:32;;;;;;;72.65;14.23;;;;;;;;;;5081743;28;20591;-58
2023/05/08 03:15:22;;;;;;;72.25;13.80;;;;;;;;;;5083034;28;20134;-60
2023/05/08 03:17:51;;;;;;;51.35;13.48;;;;;;;;;;5063570;28;20712;-59
2023/05/08 03:20:18;;;;;;;56.28;13.50;;;;;;;;;;5079782;28;20066;-57
2023/05/08 03:22:45;;;;;;;32.55;12.57;;;;;;;;;;5081329;28;20353;-60
2023/05/08 03:25:13;;;;;;;39.90;12.80;;;;;;;;;;5080309;28;20492;-60
2023/05/08 03:27:39;;;;;;;47.33;14.15;;;;;;;;;;5079037;28;20044;-58
2023/05/08 03:30:08;;;;;;;34.85;13.98;;;;;;;;;;5080953;28;20064;-60
2023/05/08 03:32:35;;;;;;;43.70;13.80;;;;;;;;;;5079845;28;20756;-57
2023/05/08 03:35:02;;;;;;;28.98;12.07;;;;;;;;;;5083995;28;20056;-60
2023/05/08 03:37:29;;;;;;;12.20;10.90;;;;;;;;;;5085798;28;20157;-58
2023/05/08 03:39:55;;;;;;;14.18;12.75;;;;;;;;;;5085620;28;20059;-60
2023/05/08 03:42:25;;;;;;;20.13;14.02;;;;;;;;;;5085691;28;20067;-59
2023/05/08 03:44:52;;;;;;;21.60;12.63;;;;;;;;;;5083507;28;20056;-58
2023/05/08 03:47:20;;;;;;;31.40;11.75;;;;;;;;;;5086048;28;20045;-59
2023/05/08 03:49:47;;;;;;;19.98;12.15;;;;;;;;;;5083219;28;20135;-59
2023/05/08 03:52:14;;;;;;;24.10;11.90;;;;;;;;;;5084831;28;20489;-59
2023/05/08 03:54:41;;;;;;;15.50;11.57;;;;;;;;;;5083646;28;21123;-59
2023/05/08 03:57:08;;;;;;;13.45;11.95;;;;;;;;;;5084471;28;20052;-59
2023/05/08 03:59:53;;;;;;;16.50;11.88;;;;;;;;;;5081964;28;20139;-58
2023/05/08 04:02:38;;;;;;;14.15;12.52;;;;;;;;;;5082933;28;20052;-58
2023/05/08 04:05:23;;;;;;;15.40;12.05;;;;;;;;;;5083068;28;20479;-58
2023/05/08 04:07:52;;;;;;;12.32;11.07;;;;;;;;;;5082976;28;20106;-59
2023/05/08 04:10:36;;;;;;;13.00;11.70;;;;;;;;;;5084990;28;20079;-59
2023/05/08 04:13:07;;;;;;;15.45;12.18;;;;;;;;;;5085523;28;20450;-60
2023/05/08 04:15:37;;;;;;;14.57;11.65;;;;;;;;;;5082799;28;20052;-58
2023/05/08 04:18:05;;;;;;;14.10;11.98;;;;;;;;;;5082552;28;20057;-58
2023/05/08 04:20:32;;;;;;;17.25;11.75;;;;;;;;;;5084466;28;20110;-59
2023/05/08 04:22:59;;;;;;;15.05;12.60;;;;;;;;;;5085114;28;20103;-59
2023/05/08 04:25:27;;;;;;;12.80;11.50;;;;;;;;;;5084688;28;20053;-60
2023/05/08 04:27:56;;;;;;;12.23;11.00;;;;;;;;;;5069600;28;20052;-59
2023/05/08 04:30:23;;;;;;;12.80;11.50;;;;;;;;;;5082564;28;20083;-59
2023/05/08 04:32:49;;;;;;;11.88;10.68;;;;;;;;;;5081917;28;20429;-59
2023/05/08 04:35:16;;;;;;;14.70;11.43;;;;;;;;;;5084267;28;20106;-60
2023/05/08 04:37:42;;;;;;;13.48;12.07;;;;;;;;;;5084164;28;20091;-57
2023/05/08 04:40:09;;;;;;;12.63;11.32;;;;;;;;;;5082380;28;20147;-57
2023/05/08 04:42:38;;;;;;;12.50;11.20;;;;;;;;;;5083578;28;20489;-60
2023/05/08 04:45:05;;;;;;;13.50;12.07;;;;;;;;;;5081058;28;20063;-58
2023/05/08 04:47:31;;;;;;;13.73;12.18;;;;;;;;;;5082383;28;20506;-60
2023/05/08 04:49:58;;;;;;;14.45;12.05;;;;;;;;;;5084616;28;20491;-60
2023/05/08 04:52:28;;;;;;;16.30;11.80;;;;;;;;;;5084669;28;20063;-60
2023/05/08 04:54:54;;;;;;;14.52;11.25;;;;;;;;;;5078847;28;20079;-59
2023/05/08 04:57:21;;;;;;;15.07;12.07;;;;;;;;;;5082366;28;20084;-58
2023/05/08 04:59:47;;;;;;;13.35;11.93;;;;;;;;;;5074446;28;20527;-60
2023/05/08 05:02:14;;;;;;;15.27;12.32;;;;;;;;;;5077843;28;20135;-59
2023/05/08 05:04:40;;;;;;;12.27;11.02;;;;;;;;;;5074614;28;20525;-58
2023/05/08 05:07:06;;;;;;;14.75;12.18;;;;;;;;;;5083263;28;20053;-60
2023/05/08 05:09:36;;;;;;;16.52;14.60;;;;;;;;;;5079803;28;20052;-59
2023/05/08 05:12:03;;;;;;;19.90;14.43;;;;;;;;;;5072279;28;20084;-57
2023/05/08 05:14:29;;;;;;;20.95;15.27;;;;;;;;;;5080166;28;20051;-56
2023/05/08 05:16:56;;;;;;;20.15;14.93;;;;;;;;;;5074744;28;20052;-60
2023/05/08 05:19:22;;;;;;;21.20;14.75;;;;;;;;;;5083662;28;20068;-58
2023/05/08 05:21:48;;;;;;;20.85;16.13;;;;;;;;;;5081340;28;20052;-60
2023/05/08 05:24:14;;;;;;;22.75;17.02;;;;;;;;;;5073347;28;20057;-59
2023/05/08 05:26:41;;;;;;;19.73;15.77;;;;;;;;;;5075956;28;20056;-59
2023/05/08 05:29:07;;;;;;;22.38;16.23;;;;;;;;;;5077007;28;20950;-60
2023/05/08 05:31:34;;;;;;;20.48;16.48;;;;;;;;;;5082770;28;20052;-60
2023/05/08 05:34:00;;;;;;;22.70;16.95;;;;;;;;;;5081925;28;20055;-59
2023/05/08 05:36:26;;;;;;;22.02;16.17;;;;;;;;;;5083399;28;20063;-60
2023/05/08 05:38:53;;;;;;;21.83;16.80;;;;;;;;;;5081707;28;20487;-59
2023/05/08 05:41:21;;;;;;;26.02;16.98;;;;;;;;;;5083120;28;20578;-59
2023/05/08 05:43:47;;;;;;;22.88;17.85;;;;;;;;;;5081891;28;20151;-58
2023/05/08 05:46:13;;;;;;;23.38;17.75;;;;;;;;;;5082154;28;20055;-59
2023/05/08 05:48:40;;;;;;;28.13;19.17;;;;;;;;;;5082526;28;20445;-57
2023/05/08 05:51:06;;;;;;;22.17;17.63;;;;;;;;;;5076684;28;20056;-59
2023/05/08 05:53:33;;;;;;;22.08;17.45;;;;;;;;;;5078802;28;20121;-58
2023/05/08 05:55:59;;;;;;;22.95;18.63;;;;;;;;;;5083113;28;20057;-53
2023/05/08 05:58:27;;;;;;;24.75;17.83;;;;;;;;;;5082296;28;20068;-59
2023/05/08 06:00:54;;;;;;;23.77;18.05;;;;;;;;;;5081523;28;20048;-59
2023/05/08 06:03:21;;;;;;;23.33;18.23;;;;;;;;;;5081282;28;20063;-59
2023/05/08 06:05:47;;;;;;;24.85;17.80;;;;;;;;;;5074314;28;20045;-60
2023/05/08 06:08:16;;;;;;;30.33;20.95;;;;;;;;;;5077231;28;20059;-60
2023/05/08 06:10:42;;;;;;;21.73;17.05;;;;;;;;;;5084234;28;20080;-58
2023/05/08 06:13:08;;;;;;;21.75;18.10;;;;;;;;;;5082763;28;20344;-61
2023/05/08 06:15:35;;;;;;;23.75;17.67;;;;;;;;;;5081662;28;20333;-61
2023/05/08 06:18:02;;;;;;;23.70;18.48;;;;;;;;;;5078079;28;20062;-59
2023/05/08 06:20:28;;;;;;;23.52;18.67;;;;;;;;;;5086425;28;20078;-59
2023/05/08 06:22:55;;;;;;;22.30;17.77;;;;;;;;;;5083512;28;20440;-60
2023/05/08 06:25:21;;;;;;;23.35;18.92;;;;;;;;;;5084980;28;20092;-59
2023/05/08 06:27:47;;;;;;;24.40;20.02;;;;;;;;;;5077958;28;20436;-60
2023/05/08 06:30:14;;;;;;;25.02;19.65;;;;;;;;;;5081799;28;20052;-60
2023/05/08 06:32:40;;;;;;;28.40;19.60;;;;;;;;;;5085351;28;20052;-59
2023/05/08 06:35:07;;;;;;;26.38;19.52;;;;;;;;;;5080285;28;20754;-59
2023/05/08 06:37:33;;;;;;;25.02;19.83;;;;;;;;;;5083309;28;20057;-59
2023/05/08 06:40:00;;;;;;;24.05;18.33;;;;;;;;;;5077184;28;20072;-60
2023/05/08 06:42:38;;;;;;;25.60;20.55;;;;;;;;;;5081048;28;20056;-59
2023/05/08 06:45:05;;;;;;;27.38;19.05;;;;;;;;;;5110195;27;20574;-60
2023/05/08 06:47:31;;;;;;;27.13;21.50;;;;;;;;;;5079821;28;20133;-60
2023/05/08 06:49:59;;;;;;;27.80;21.42;;;;;;;;;;5081567;28;20110;-54
2023/05/08 06:52:25;;;;;;;28.60;20.33;;;;;;;;;;5078279;28;20059;-59
2023/05/08 06:54:51;;;;;;;28.42;20.75;;;;;;;;;;5081772;28;20067;-58
2023/05/08 06:57:18;;;;;;;29.20;22.17;;;;;;;;;;5079626;28;20056;-60
2023/05/08 06:59:44;;;;;;;25.17;20.23;;;;;;;;;;5080486;28;20049;-60
2023/05/08 07:02:11;;;;;;;26.23;20.83;;;;;;;;;;5082893;28;20063;-60
2023/05/08 07:04:37;;;;;;;31.60;21.08;;;;;;;;;;5080540;28;20056;-60
2023/05/08 07:07:05;;;;;;;26.67;20.48;;;;;;;;;;5081443;28;20550;-60
2023/05/08 07:09:32;;;;;;;26.05;20.25;;;;;;;;;;5085163;28;20055;-60
2023/05/08 07:11:58;;;;;;;26.92;21.52;;;;;;;;;;5086519;28;20515;-58
2023/05/08 07:14:26;;;;;;;29.92;20.92;;;;;;;;;;5078229;28;20059;-59
2023/05/08 07:16:53;;;;;;;26.73;20.45;;;;;;;;;;5067385;28;20048;-59
2023/05/08 07:19:19;;;;;;;27.98;20.98;;;;;;;;;;5085919;27;20310;-60
2023/05/08 07:21:47;;;;;;;26.38;20.90;;;;;;;;;;5085630;28;20056;-57
2023/05/08 07:24:14;;;;;;;27.95;21.52;;;;;;;;;;5083325;28;20591;-58
2023/05/08 07:26:40;;;;;;;27.20;20.83;;;;;;;;;;5080698;28;20626;-60
2023/05/08 07:29:07;;;;;;;28.38;20.90;;;;;;;;;;5085919;28;20514;-56
2023/05/08 07:31:33;;;;;;;28.67;22.17;;;;;;;;;;5085243;28;20586;-60
2023/05/08 07:34:01;;;;;;;29.95;22.02;;;;;;;;;;5086275;28;20096;-59
2023/05/08 07:36:27;;;;;;;29.25;22.30;;;;;;;;;;5084232;28;20057;-57
2023/05/08 07:38:54;;;;;;;27.55;21.60;;;;;;;;;;5080123;28;20053;-60
2023/05/08 07:41:20;;;;;;;31.52;23.25;;;;;;;;;;5080459;28;20049;-60
2023/05/08 07:43:46;;;;;;;32.97;24.10;;;;;;;;;;5083860;28;20060;-60
2023/05/08 07:46:19;;;;;;;30.77;23.73;;;;;;;;;;5086257;28;20056;-60
2023/05/08 07:48:45;;;;;;;32.35;23.98;;;;;;;;;;5067391;28;20053;-59
2023/05/08 07:51:12;;;;;;;29.88;23.52;;;;;;;;;;5065236;28;20526;-60
2023/05/08 07:53:38;;;;;;;33.28;24.13;;;;;;;;;;5072070;28;20423;-60
2023/05/08 07:56:05;;;;;;;30.08;23.25;;;;;;;;;;5084505;28;20057;-58
2023/05/08 07:58:31;;;;;;;34.83;26.02;;;;;;;;;;5084280;28;20151;-60
2023/05/08 08:00:58;;;;;;;36.13;25.48;;;;;;;;;;5085230;28;20097;-57
2023/05/08 08:03:24;;;;;;;31.80;25.75;;;;;;;;;;5085347;28;20063;-59
2023/05/08 08:05:50;;;;;;;30.75;24.58;;;;;;;;;;5088242;28;20512;-59
2023/05/08 08:08:17;;;;;;;33.28;25.27;;;;;;;;;;5071135;28;20053;-61
2023/05/08 08:10:43;;;;;;;31.48;25.20;;;;;;;;;;5085912;27;20090;-58
2023/05/08 08:13:09;;;;;;;32.20;24.23;;;;;;;;;;5084108;28;20470;-59
2023/05/08 08:15:36;;;;;;;30.98;24.38;;;;;;;;;;5080234;28;20056;-58
2023/05/08 08:18:02;;;;;;;28.23;23.50;;;;;;;;;;5084459;28;20052;-58
2023/05/08 08:20:29;;;;;;;30.42;24.70;;;;;;;;;;5084170;28;20052;-58
2023/05/08 08:22:55;;;;;;;26.65;22.08;;;;;;;;;;5088432;28;20305;-60
2023/05/08 08:25:22;;;;;;;28.70;23.48;;;;;;;;;;5081819;28;20048;-59
2023/05/08 08:27:48;;;;;;;29.90;24.42;;;;;;;;;;5084960;28;20048;-61
2023/05/08 08:30:14;;;;;;;29.63;23.38;;;;;;;;;;5084911;28;20556;-61
2023/05/08 08:32:44;;;;;;;31.40;23.95;;;;;;;;;;5084689;28;20063;-59
2023/05/08 08:35:10;;;;;;;29.75;23.70;;;;;;;;;;5083585;28;20171;-60
2023/05/08 08:37:37;;;;;;;30.23;23.92;;;;;;;;;;5088035;28;20599;-60
2023/05/08 08:40:04;;;;;;;30.60;24.45;;;;;;;;;;5076821;28;20152;-60
2023/05/08 08:42:30;;;;;;;29.92;22.92;;;;;;;;;;5067515;28;20136;-57
2023/05/08 08:44:57;;;;;;;30.30;24.23;;;;;;;;;;5076388;28;20055;-60
2023/05/08 08:47:26;;;;;;;35.28;24.92;;;;;;;;;;5084787;28;20048;-60
2023/05/08 08:49:53;;;;;;;29.80;23.65;;;;;;;;;;5084289;28;20135;-59
2023/05/08 08:52:27;;;;;;;28.48;23.60;;;;;;;;;;5084481;28;20056;-59
2023/05/08 08:54:55;;;;;;;31.83;24.45;;;;;;;;;;5082151;28;20106;-59
2023/05/08 08:57:22;;;;;;;30.02;24.00;;;;;;;;;;5077929;28;20044;-60
2023/05/08 08:59:48;;;;;;;28.45;24.20;;;;;;;;;;5064945;28;20122;-59
2023/05/08 09:02:16;;;;;;;31.40;23.42;;;;;;;;;;5086219;28;20063;-59
2023/05/08 09:04:43;;;;;;;32.05;24.30;;;;;;;;;;5081526;28;20086;-59
2023/05/08 09:07:10;;;;;;;26.50;22.45;;;;;;;;;;5082150;28;20052;-60
2023/05/08 09:09:43;;;;;;;27.95;23.98;;;;;;;;;;5070577;28;20056;-60
2023/05/08 09:12:10;;;;;;;29.13;23.48;;;;;;;;;;5084840;28;20763;-60
2023/05/08 09:14:37;;;;;;;31.48;23.73;;;;;;;;;;5081772;28;20662;-61
2023/05/08 09:17:03;;;;;;;30.13;24.55;;;;;;;;;;5078638;28;20183;-59
2023/05/08 09:19:30;;;;;;;31.63;23.13;;;;;;;;;;5081654;28;20614;-60
2023/05/08 09:22:00;;;;;;;28.25;22.83;;;;;;;;;;5084396;28;20503;-60
2023/05/08 09:24:46;;;;;;;29.13;22.65;;;;;;;;;;5084519;28;20131;-60
2023/05/08 09:27:20;;;;;;;27.02;23.45;;;;;;;;;;5084390;28;20059;-61
2023/05/08 09:29:57;;;;;;;25.95;21.92;;;;;;;;;;5083827;28;20055;-61
2023/05/08 09:32:24;;;;;;;30.50;23.83;;;;;;;;;;5079450;28;20053;-60
2023/05/08 09:34:53;;;;;;;28.23;22.70;;;;;;;;;;5083853;28;20118;-59
2023/05/08 09:37:20;;;;;;;25.17;22.42;;;;;;;;;;5081910;28;20510;-60
2023/05/08 09:39:46;;;;;;;32.20;23.90;;;;;;;;;;5083672;28;20048;-62
2023/05/08 09:42:13;;;;;;;28.83;22.30;;;;;;;;;;5083430;28;20056;-59
2023/05/08 09:44:44;;;;;;;30.95;24.55;;;;;;;;;;5082558;28;20055;-62
2023/05/08 09:47:20;;;;;;;31.67;24.63;;;;;;;;;;5082850;28;20056;-60
2023/05/08 09:50:00;;;;;;;34.15;25.02;;;;;;;;;;5074151;28;20268;-61
2023/05/08 09:52:28;;;;;;;31.45;24.05;;;;;;;;;;5070365;28;20557;-61
2023/05/08 09:54:58;;;;;;;30.80;25.50;;;;;;;;;;5080728;28;20467;-62
2023/05/08 09:57:28;;;;;;;30.23;24.67;;;;;;;;;;5084434;28;20569;-61
2023/05/08 10:00:03;;;;;;;31.33;23.98;;;;;;;;;;5081506;28;20052;-60
2023/05/08 10:02:30;;;;;;;30.05;23.00;;;;;;;;;;5081871;28;20080;-62
2023/05/08 10:04:57;;;;;;;30.48;22.13;;;;;;;;;;5073763;28;20501;-62
2023/05/08 10:07:34;;;;;;;35.35;25.35;;;;;;;;;;5084524;28;20514;-61
2023/05/08 10:10:02;;;;;;;29.30;23.10;;;;;;;;;;5103737;27;20491;-61
2023/05/08 10:12:29;;;;;;;31.98;25.05;;;;;;;;;;5086975;27;20060;-62
2023/05/08 10:14:56;;;;;;;35.30;26.13;;;;;;;;;;5083160;28;20762;-60
2023/05/08 10:17:32;;;;;;;34.70;24.83;;;;;;;;;;5082797;28;20526;-62
2023/05/08 10:20:02;;;;;;;33.38;24.92;;;;;;;;;;5083048;28;20060;-60
2023/05/08 10:22:31;;;;;;;32.30;25.90;;;;;;;;;;5090815;28;20502;-60
2023/05/08 10:24:57;;;;;;;33.90;24.70;;;;;;;;;;5102702;28;20048;-61
2023/05/08 10:27:30;;;;;;;37.22;27.13;;;;;;;;;;5076667;27;20213;-57
2023/05/08 10:30:00;;;;;;;38.22;25.45;;;;;;;;;;5063581;28;20458;-57
2023/05/08 10:32:27;;;;;;;36.92;26.17;;;;;;;;;;5063548;28;20055;-58
2023/05/08 10:35:01;;;;;;;37.92;26.90;;;;;;;;;;5063097;28;20053;-56
2023/05/08 10:37:28;;;;;;;37.38;26.73;;;;;;;;;;5063299;28;20053;-57
2023/05/08 10:40:01;;;;;;;40.88;29.00;;;;;;;;;;5067916;28;20557;-56
2023/05/08 10:42:28;;;;;;;38.33;28.10;;;;;;;;;;5050118;28;20601;-57
2023/05/08 10:44:54;;;;;;;44.30;30.83;;;;;;;;;;5056533;28;20060;-58
2023/05/08 10:47:39;;;;;;;47.50;31.15;;;;;;;;;;5063005;28;20141;-57
2023/05/08 10:50:11;;;;;;;44.58;30.42;;;;;;;;;;5058261;28;20049;-58
2023/05/08 10:52:40;;;;;;;49.45;32.60;;;;;;;;;;5060565;28;20398;-58
2023/05/08 10:55:18;;;;;;;47.50;32.35;;;;;;;;;;5061011;28;20083;-56
2023/05/08 10:58:03;;;;;;;48.05;33.10;;;;;;;;;;5061936;28;20044;-58
2023/05/08 11:00:30;;;;;;;58.42;36.97;;;;;;;;;;5060216;28;20561;-61
2023/05/08 11:03:04;;;;;;;62.58;38.22;;;;;;;;;;5059662;28;20499;-60
2023/05/08 11:05:48;;;;;;;61.42;39.67;;;;;;;;;;5056031;28;20049;-59
2023/05/08 11:08:18;;;;;;;62.33;38.75;;;;;;;;;;5059247;28;20053;-60
2023/05/08 11:10:49;;;;;;;63.72;39.30;;;;;;;;;;5058551;28;20431;-60
2023/05/08 11:13:16;;;;;;;65.10;40.70;;;;;;;;;;5042207;28;20053;-60
2023/05/08 11:15:50;;;;;;;61.50;38.60;;;;;;;;;;5052218;28;22009;-59
2023/05/08 11:18:16;;;;;;;55.70;35.95;;;;;;;;;;5072759;28;20123;-58
2023/05/08 11:20:56;;;;;;;59.28;38.08;;;;;;;;;;5061316;28;20665;-60
2023/05/08 11:23:24;;;;;;;59.38;38.45;;;;;;;;;;5061729;28;20057;-59
2023/05/08 11:26:02;;;;;;;62.17;37.88;;;;;;;;;;5056744;28;20084;-59
2023/05/08 11:28:32;;;;;;;63.63;40.20;;;;;;;;;;5058580;28;20060;-60
2023/05/08 11:31:03;;;;;;;63.30;39.72;;;;;;;;;;5048842;28;20412;-60
2023/05/08 11:33:30;;;;;;;63.70;40.70;;;;;;;;;;5049785;28;20787;-60
2023/05/08 11:36:10;;;;;;;66.35;41.15;;;;;;;;;;5067345;28;20546;-60
2023/05/08 11:38:37;;;;;;;65.15;42.28;;;;;;;;;;5061551;28;20084;-60
2023/05/08 11:41:07;;;;;;;65.40;40.15;;;;;;;;;;5059571;28;20053;-60
2023/05/08 11:43:37;;;;;;;65.97;41.10;;;;;;;;;;5060591;28;20515;-61
2023/05/08 11:46:04;;;;;;;68.28;42.88;;;;;;;;;;5057455;28;20156;-59
2023/05/08 11:48:31;;;;;;;69.05;44.00;;;;;;;;;;5059465;28;20503;-59
2023/05/08 11:50:58;;;;;;;60.97;41.60;;;;;;;;;;5060668;28;20056;-59
2023/05/08 11:53:25;;;;;;;62.05;41.25;;;;;;;;;;5060566;28;20408;-59
2023/05/08 11:55:52;;;;;;;63.70;41.58;;;;;;;;;;5061894;28;20057;-60
2023/05/08 11:58:19;;;;;;;62.92;39.95;;;;;;;;;;5064180;28;20048;-60
2023/05/08 12:00:45;;;;;;;66.40;41.33;;;;;;;;;;5063886;28;20053;-60
2023/05/08 12:03:15;;;;;;;62.85;40.83;;;;;;;;;;5057023;28;20092;-60
2023/05/08 12:05:42;;;;;;;67.65;43.75;;;;;;;;;;5056544;28;20127;-61
2023/05/08 12:08:08;;;;;;;64.65;42.05;;;;;;;;;;5063932;28;20060;-60
2023/05/08 12:10:51;;;;;;;62.58;42.05;;;;;;;;;;5064558;28;20715;-61
2023/05/08 12:13:22;;;;;;;55.03;39.08;;;;;;;;;;5062635;28;20138;-60
2023/05/08 12:15:52;;;;;;;58.20;38.92;;;;;;;;;;5063169;28;20586;-61
2023/05/08 12:18:19;;;;;;;61.08;38.97;;;;;;;;;;5051891;28;20172;-59
2023/05/08 12:20:52;;;;;;;58.22;38.13;;;;;;;;;;5056752;28;20232;-60
2023/05/08 12:23:19;;;;;;;47.22;34.38;;;;;;;;;;5053302;28;20050;-60
2023/05/08 12:25:46;;;;;;;47.20;34.88;;;;;;;;;;5062557;28;20107;-61
2023/05/08 12:28:12;;;;;;;48.05;34.30;;;;;;;;;;5060317;28;20076;-32
2023/05/08 12:30:39;;;;;;;43.85;30.75;;;;;;;;;;5050135;28;20080;-64
2023/05/08 12:33:05;;;;;;;47.88;32.55;;;;;;;;;;5062857;28;20057;-60
2023/05/08 12:35:32;;;;;;;46.58;31.27;;;;;;;;;;5064758;28;20504;-60
2023/05/08 12:38:02;;;;;;;44.05;30.10;;;;;;;;;;5068144;28;20084;-59
2023/05/08 12:40:30;;;;;;;42.88;30.92;;;;;;;;;;5062975;28;20053;-60
2023/05/08 12:42:59;;;;;;;41.63;29.88;;;;;;;;;;5064097;28;20052;-59
2023/05/08 12:45:32;;;;;;;42.67;30.30;;;;;;;;;;5062517;28;20332;-61
2023/05/08 12:47:59;;;;;;;39.00;29.33;;;;;;;;;;5055594;28;20456;-59
2023/05/08 12:50:26;;;;;;;38.00;28.90;;;;;;;;;;5063726;28;20103;-60
2023/05/08 12:52:52;;;;;;;46.65;32.72;;;;;;;;;;5062953;28;20057;-60
2023/05/08 12:55:22;;;;;;;40.63;30.23;;;;;;;;;;5063172;28;20148;-61
2023/05/08 12:57:50;;;;;;;39.08;28.23;;;;;;;;;;5062745;28;20384;-61
2023/05/08 13:00:17;;;;;;;36.50;28.73;;;;;;;;;;5061855;28;20558;-61
2023/05/08 13:02:50;;;;;;;35.83;26.65;;;;;;;;;;5061648;28;20057;-60
2023/05/08 13:05:20;;;;;;;36.42;26.42;;;;;;;;;;5062967;28;20053;-60
2023/05/08 13:07:48;;;;;;;35.15;26.25;;;;;;;;;;5044545;28;20144;-61
2023/05/08 13:10:14;;;;;;;36.55;24.67;;;;;;;;;;5080029;28;20147;-60
2023/05/08 13:12:41;;;;;;;36.63;26.08;;;;;;;;;;5063303;28;20577;-61
2023/05/08 13:15:08;;;;;;;34.42;26.33;;;;;;;;;;5062528;28;20500;-59
2023/05/08 13:17:34;;;;;;;32.10;25.15;;;;;;;;;;5062982;28;20057;-61
2023/05/08 13:20:02;;;;;;;29.33;23.40;;;;;;;;;;5062845;28;20057;-61
2023/05/08 13:22:31;;;;;;;32.47;23.33;;;;;;;;;;5062567;28;20064;-60
2023/05/08 13:24:58;;;;;;;29.38;24.13;;;;;;;;;;5062365;28;20063;-58
2023/05/08 13:27:24;;;;;;;36.05;27.52;;;;;;;;;;5062719;28;20053;-61
2023/05/08 13:29:50;;;;;;;34.38;27.02;;;;;;;;;;5061956;28;20864;-61
2023/05/08 13:32:17;;;;;;;35.78;26.17;;;;;;;;;;5062561;28;20144;-59
2023/05/08 13:34:43;;;;;;;33.97;25.60;;;;;;;;;;5077734;28;20049;-60
2023/05/08 13:37:16;;;;;;;33.30;25.98;;;;;;;;;;5065342;28;20106;-60
2023/05/08 13:39:43;;;;;;;31.35;24.45;;;;;;;;;;5074359;28;20059;-60
2023/05/08 13:42:09;;;;;;;36.60;27.83;;;;;;;;;;5060024;28;20055;-58
2023/05/08 13:44:35;;;;;;;37.28;27.27;;;;;;;;;;5062167;28;20049;-60
2023/05/08 13:47:02;;;;;;;36.60;26.25;;;;;;;;;;5060537;28;20136;-60
2023/05/08 13:49:29;;;;;;;34.72;25.75;;;;;;;;;;5062160;28;20049;-60
2023/05/08 13:51:55;;;;;;;38.20;25.92;;;;;;;;;;5062024;28;20132;-60
2023/05/08 13:54:22;;;;;;;34.95;24.88;;;;;;;;;;5061736;28;20064;-60
2023/05/08 13:56:49;;;;;;;39.85;26.13;;;;;;;;;;5061793;28;20057;-61
2023/05/08 13:59:15;;;;;;;32.38;23.67;;;;;;;;;;5062022;28;20239;-60
2023/05/08 14:01:42;;;;;;;33.72;24.17;;;;;;;;;;5061723;28;20136;-61
2023/05/08 14:04:08;;;;;;;33.95;23.35;;;;;;;;;;5062760;28;20565;-62
2023/05/08 14:06:35;;;;;;;34.28;23.55;;;;;;;;;;5049244;28;20049;-60
2023/05/08 14:09:01;;;;;;;32.13;23.50;;;;;;;;;;5052022;28;20057;-60
2023/05/08 14:11:28;;;;;;;32.65;23.50;;;;;;;;;;5071724;28;20539;-60
2023/05/08 14:13:56;;;;;;;30.63;22.30;;;;;;;;;;5061709;28;20107;-61
2023/05/08 14:16:22;;;;;;;32.35;23.00;;;;;;;;;;5061432;28;20064;-60
2023/05/08 14:18:49;;;;;;;32.47;23.55;;;;;;;;;;5060225;28;20087;-60
2023/05/08 14:21:15;;;;;;;34.97;24.00;;;;;;;;;;5059565;28;20590;-60
2023/05/08 14:23:43;;;;;;;33.58;22.58;;;;;;;;;;5057902;28;20057;-60
2023/05/08 14:26:09;;;;;;;35.10;23.80;;;;;;;;;;5053043;28;20143;-61